Latest Weather Observations for Liawenee

IDT60801

Issued at 5:02 am EST Friday 1 July 2016 (issued every 30 minutes, with the page automatically refreshed every 10 minutes)

About weather observations | Map of weather stations | Latest weather observations for TAS | Other Formats
Station Details ID: 096033 Name: LIAWENEE Lat: -41.90 Lon: 146.67 Height: 1057.0 m
Data from the previous 72 hours. | See also: Recent months at Liawenee
Date/Time
EST
Temp
°C
App
Temp
°C
Dew
Point
°C
Rel
Hum
%
Delta-T
°C
Wind Press
QNH
hPa
Press
MSL
hPa
Rain since
9am
mm
Dir  Spd
km/h
Gust
km/h
Spd
kts
Gust
kts
01/05:00am 1.0 -4.5 0.9 99 0.0 WSW 19 26 10 14 1008.1 1009.9 8.4
01/04:30am 1.0 -2.9 0.9 99 0.0 WSW 11 17 6 9 1007.5 1009.4 8.4
01/04:00am 0.9 -2.3 0.8 99 0.0 WSW 7 9 4 5 1007.4 1009.2 8.2
01/03:30am 0.8 -2.8 0.7 99 0.0 WSW 9 13 5 7 1007.4 1009.2 8.2
01/03:00am 0.8 -3.5 0.7 99 0.0 WSW 13 19 7 10 1007.3 1009.1 8.2
01/02:30am 0.7 -3.7 0.6 99 0.0 WSW 13 17 7 9 1007.0 1008.8 8.2
01/02:00am 0.3 -3.8 0.0 98 0.1 W 11 13 6 7 1006.0 1007.8 8.2
01/01:30am 0.6 -2.7 0.3 98 0.1 W 7 9 4 5 1005.8 1007.5 8.2
01/01:00am 0.5 -3.9 0.4 99 0.0 WSW 13 19 7 10 1005.5 1007.3 8.2
01/12:30am 0.1 -4.0 0.0 99 0.0 W 11 15 6 8 1005.2 1007.0 8.2
01/12:00am -0.4 -3.6 -0.7 98 0.1 WNW 6 7 3 4 1004.9 1006.6 8.2
 
Date/Time
EST
Temp
°C
App
Temp
°C
Dew
Point
°C
Rel
Hum
%
Delta-T
°C
Wind Press
QNH
hPa
Press
MSL
hPa
Rain since
9am
mm
Dir  Spd
km/h
Gust
km/h
Spd
kts
Gust
kts
30/11:30pm -0.1 -3.9 -0.4 98 0.1 WSW 9 11 5 6 1004.5 1006.3 8.2
30/11:00pm -0.1 -3.5 -0.5 97 0.1 S 7 9 4 5 1004.2 1005.9 8.2
30/10:30pm 0.9 -2.2 0.3 96 0.2 NNE 6 9 3 5 1003.9 1005.6 8.2
30/10:00pm 1.9 -1.6 1.5 97 0.2 N 9 13 5 7 1003.6 1005.3 8.2
30/09:30pm 2.3 0.2 1.7 96 0.2 N 2 6 1 3 1003.8 1005.5 8.2
30/09:00pm 2.8 1.2 2.4 97 0.2 CALM 0 6 0 3 1003.7 1005.4 8.2
30/08:30pm 3.0 -0.3 2.6 97 0.2 WSW 9 11 5 6 1003.4 1005.2 8.2
30/08:00pm 3.4 1.9 3.0 97 0.2 CALM 0 0 0 0 1003.1 1004.8 8.0
30/07:30pm 3.6 0.8 3.0 96 0.3 WSW 7 9 4 5 1002.8 1004.5 7.6
30/07:00pm 3.8 0.6 3.1 95 0.3 NW 9 17 5 9 1002.4 1004.1 7.6
30/06:30pm 3.8 0.6 2.9 94 0.4 NW 9 13 5 7 1002.2 1003.9 7.6
30/06:00pm 3.7 -0.3 2.8 94 0.4 NW 13 24 7 13 1001.7 1003.3 7.6
30/05:30pm 3.6 0.0 2.9 95 0.3 NW 11 19 6 10 1001.1 1002.8 7.6
30/05:00pm 3.7 -0.3 2.8 94 0.4 NW 13 22 7 12 1000.8 1002.4 7.6
30/04:30pm 4.0 0.4 3.1 94 0.4 NW 11 20 6 11 1000.4 1002.1 7.6
30/04:00pm 3.9 -0.1 3.0 94 0.4 NW 13 24 7 13 1000.3 1002.0 7.4
30/03:30pm 4.0 -1.1 3.0 93 0.4 NNW 19 32 10 17 1000.0 1001.6 7.4
30/03:00pm 3.8 -1.0 2.8 93 0.4 N 17 33 9 18 1000.1 1001.7 7.2
30/02:30pm 3.4 -2.0 2.4 93 0.4 N 20 35 11 19 1000.2 1001.9 6.8
30/02:00pm 3.3 -2.9 2.0 91 0.6 N 24 43 13 23 1000.1 1001.7 6.4
30/01:30pm 3.4 -2.8 2.2 92 0.5 NNW 24 41 13 22 1000.4 1002.1 6.2
30/01:00pm 3.8 -2.7 2.6 92 0.5 NNW 26 44 14 24 1000.8 1002.4 6.2
30/12:30pm 3.5 -3.4 2.3 92 0.5 N 28 46 15 25 1001.3 1003.0 5.4
30/12:00pm 3.8 -3.1 2.8 93 0.4 NNW 28 56 15 30 1001.6 1003.2 4.8
30/11:56am 3.8 -3.1 2.6 92 0.5 NNW 28 56 15 30 1001.7 1003.3 4.8
30/11:30am 3.6 -2.1 2.6 93 0.4 NNW 22 37 12 20 1002.1 1003.8 4.6
30/11:03am 3.5 -3.4 2.3 92 0.5 N 28 46 15 25 1002.6 1004.2 3.8
30/11:00am 3.5 -3.1 2.3 92 0.5 N 26 44 14 24 1002.7 1004.4 3.8
30/10:30am 3.4 -2.4 2.4 93 0.4 N 22 35 12 19 1003.4 1005.2 2.8
30/10:00am 3.2 -2.6 2.2 93 0.4 N 22 46 12 25 1003.8 1005.5 2.2
30/09:30am 3.2 -3.4 2.2 93 0.4 N 26 52 14 28 1003.9 1005.6 1.2
30/09:00am 3.1 -3.8 2.5 96 0.3 N 28 52 15 28 1004.1 1005.8 8.6
30/08:52am 3.0 -4.3 2.4 96 0.3 N 30 50 16 27 1004.2 1005.9 8.4
30/08:30am 3.0 -2.8 2.3 95 0.3 N 22 39 12 21 1004.4 1006.2 8.2
30/08:00am 2.9 -2.6 1.7 92 0.5 N 20 43 11 23 1004.7 1006.4 7.6
30/07:30am 3.1 -3.5 2.1 93 0.4 N 26 50 14 27 1004.4 1006.2 6.6
30/07:29am 3.1 -3.9 2.1 93 0.4 N 28 50 15 27 1004.4 1006.2 6.6
30/07:00am 2.9 -3.3 1.9 93 0.4 N 24 44 13 24 1004.5 1006.3 5.8
30/06:30am 2.8 -4.3 1.6 92 0.5 N 28 50 15 27 1005.1 1006.9 5.2
30/06:25am 2.9 -4.1 1.7 92 0.5 NNE 28 50 15 27 1005.3 1007.1 5.0
30/06:00am 2.9 -2.6 1.9 93 0.4 N 20 41 11 22 1006.1 1007.9 4.2
30/05:30am 2.8 -3.1 1.8 93 0.4 N 22 35 12 19 1006.4 1008.2 3.0
30/05:00am 2.8 -3.5 1.6 92 0.5 N 24 44 13 24 1006.4 1008.2 2.4
30/04:30am 2.6 -3.3 1.4 92 0.5 N 22 35 12 19 1007.0 1008.8 2.0
30/04:12am 2.8 -4.3 1.3 90 0.6 N 28 56 15 30 1007.2 1009.0 1.6
30/04:00am 2.7 -3.7 1.1 89 0.7 N 24 43 13 23 1007.7 1009.5 1.4
30/03:30am 2.5 -3.1 1.3 92 0.5 NNW 20 41 11 22 1008.2 1010.0 1.4
30/03:00am 2.6 -2.9 0.3 85 0.9 N 19 35 10 19 1009.3 1011.2 1.4
30/02:30am 2.4 -2.7 0.6 88 0.7 NNE 17 35 9 19 1010.5 1012.4 1.4
30/02:00am 2.4 -4.0 0.8 89 0.7 N 24 41 13 22 1011.0 1012.9 1.4
30/01:30am 3.0 -3.0 0.9 86 0.9 N 22 35 12 19 1011.0 1012.9 1.2
30/01:00am 3.4 -3.2 1.8 89 0.7 N 26 46 14 25 1011.5 1013.5 1.2
30/12:37am 3.6 -3.4 2.1 90 0.6 N 28 50 15 27 1012.0 1013.9 1.2
30/12:30am 3.6 -2.6 2.3 91 0.6 NNW 24 50 13 27 1012.3 1014.3 1.2
30/12:04am 3.5 -3.4 2.5 93 0.4 N 28 48 15 26 1012.4 1014.4 1.0
30/12:00am 3.6 -2.2 2.3 91 0.6 N 22 41 12 22 1012.4 1014.4 1.0
 
Date/Time
EST
Temp
°C
App
Temp
°C
Dew
Point
°C
Rel
Hum
%
Delta-T
°C
Wind Press
QNH
hPa
Press
MSL
hPa
Rain since
9am
mm
Dir  Spd
km/h
Gust
km/h
Spd
kts
Gust
kts
29/11:30pm 3.7 -3.3 1.9 88 0.8 NNW 28 48 15 26 1013.2 1015.2 0.8
29/11:11pm 3.3 -3.7 1.7 89 0.7 N 28 48 15 26 1013.3 1015.3 0.6
29/11:00pm 3.4 -2.5 1.8 89 0.7 N 22 37 12 20 1013.4 1015.4 0.4
29/10:30pm 3.5 -3.6 1.4 86 0.9 NNW 28 48 15 26 1013.9 1015.8 0.4
29/10:29pm 3.4 -3.7 1.3 86 0.9 NNW 28 48 15 26 1014.0 1016.0 0.4
29/10:00pm 3.5 -2.7 1.9 89 0.7 NNW 24 44 13 24 1014.1 1016.1 0.4
29/09:30pm 3.6 -2.6 2.0 89 0.7 NNW 24 44 13 24 1015.0 1017.0 0.4
29/09:00pm 3.5 -1.5 1.5 87 0.8 NNW 17 28 9 15 1015.4 1017.4 0.0
29/08:30pm 3.5 -1.5 1.4 86 0.9 NNW 17 32 9 17 1015.9 1017.9 0.0
29/08:00pm 3.5 -0.7 1.5 87 0.8 NNW 13 26 7 14 1016.3 1018.3 0.0
29/07:30pm 3.2 -0.3 1.3 87 0.8 NNW 9 20 5 11 1016.5 1018.6 0.0
29/07:00pm 3.6 -0.2 1.6 87 0.8 N 11 22 6 12 1016.8 1018.9 0.0
29/06:30pm 4.1 0.1 2.8 91 0.6 N 13 22 7 12 1017.0 1019.0 0.0
29/06:00pm 4.2 0.9 2.7 90 0.6 N 9 13 5 7 1017.0 1019.0 0.0
29/05:30pm 3.9 0.0 0.9 81 1.2 N 11 17 6 9 1017.1 1019.1 0.0
29/05:00pm 3.7 0.4 0.4 79 1.3 NNW 7 19 4 10 1017.3 1019.4 0.0
29/04:30pm 4.3 0.3 0.6 77 1.5 WNW 11 17 6 9 1017.5 1019.6 0.0
29/04:00pm 6.0 2.4 0.8 69 2.2 NW 9 13 5 7 1017.7 1019.8 0.0
29/03:30pm 6.7 1.2 0.6 65 2.6 W 19 26 10 14 1018.2 1020.3 0.0
29/03:00pm 6.9 1.4 0.6 64 2.7 WNW 19 28 10 15 1018.3 1020.4 0.0
29/02:30pm 7.1 1.3 0.1 61 2.9 W 20 30 11 16 1018.1 1020.2 0.0
29/02:00pm 7.0 1.4 1.5 68 2.4 WNW 20 32 11 17 1018.5 1020.6 0.0
29/01:30pm 6.3 1.0 2.0 74 1.9 WNW 19 28 10 15 1018.6 1020.7 0.0
29/01:00pm 7.2 1.6 3.3 76 1.8 WNW 22 33 12 18 1018.8 1021.0 0.0
29/12:30pm 6.2 0.6 3.2 81 1.3 WNW 22 30 12 16 1019.2 1021.3 0.0
29/12:00pm 6.4 1.2 3.4 81 1.3 W 20 32 11 17 1019.5 1021.6 0.0
29/11:30am 6.4 1.1 3.2 80 1.4 WNW 20 41 11 22 1019.7 1021.9 0.0
29/11:00am 6.5 0.9 3.5 81 1.4 W 22 32 12 17 1020.0 1022.1 0.0
29/10:30am 5.9 1.4 4.1 88 0.8 WNW 17 26 9 14 1020.0 1022.1 0.0
29/10:00am 6.2 1.7 4.0 86 1.0 W 17 28 9 15 1020.0 1022.1 0.0
29/09:30am 5.1 1.4 4.4 95 0.3 W 13 20 7 11 1019.8 1022.0 0.0
29/09:00am 5.0 0.9 4.4 96 0.3 W 15 20 8 11 1019.8 1022.0 0.0
29/08:30am 4.5 0.7 3.9 96 0.3 W 13 17 7 9 1019.4 1021.5 0.0
29/08:00am 4.0 0.5 3.4 96 0.3 W 11 15 6 8 1019.1 1021.2 0.0
29/07:30am 3.8 -1.3 3.1 95 0.3 W 19 24 10 13 1018.5 1020.6 0.0
29/07:00am 3.2 -2.0 2.3 94 0.4 W 19 26 10 14 1018.3 1020.4 0.0
29/06:30am 3.3 -1.6 2.3 93 0.4 W 17 20 9 11 1017.8 1019.9 0.0
29/06:00am 3.7 -1.1 2.5 92 0.5 W 17 22 9 12 1017.7 1019.8 0.0
29/05:30am 3.9 -0.9 2.4 90 0.6 W 17 26 9 14 1017.3 1019.4 0.0
29/05:00am 4.1 -1.1 2.6 90 0.6 W 19 28 10 15 1017.1 1019.1 0.0
29/04:30am 3.9 -1.5 2.3 89 0.7 WNW 20 32 11 17 1016.8 1018.9 0.0
29/04:00am 3.9 -1.4 2.1 88 0.8 W 19 35 10 19 1016.5 1018.6 0.0
29/03:30am 3.6 -2.0 1.5 86 0.9 WNW 20 33 11 18 1016.5 1018.6 0.0
29/03:00am 3.9 -1.6 1.9 87 0.8 WNW 20 33 11 18 1016.6 1018.7 0.0
29/02:30am 3.4 -2.5 1.4 87 0.8 WNW 22 33 12 18 1016.7 1018.8 0.0
29/02:00am 3.3 -3.7 2.0 91 0.5 W 28 39 15 21 1016.5 1018.6 0.0
29/01:30am 3.3 -3.8 1.5 88 0.8 W 28 41 15 22 1016.4 1018.5 0.0
29/01:00am 3.7 -3.8 1.3 84 1.0 W 30 43 16 23 1016.6 1018.7 0.0
29/12:30am 3.2 -3.6 1.1 86 0.9 W 26 37 14 20 1016.7 1018.8 0.0
29/12:00am 3.4 -3.7 1.6 88 0.8 W 28 39 15 21 1017.0 1019.0 0.0
 
Date/Time
EST
Temp
°C
App
Temp
°C
Dew
Point
°C
Rel
Hum
%
Delta-T
°C
Wind Press
QNH
hPa
Press
MSL
hPa
Rain since
9am
mm
Dir  Spd
km/h
Gust
km/h
Spd
kts
Gust
kts
28/11:30pm 3.5 -3.6 1.2 85 1.0 W 28 39 15 21 1017.2 1019.3 0.0
28/11:00pm 3.6 -3.5 1.6 87 0.8 W 28 39 15 21 1017.1 1019.1 0.0
28/10:46pm 3.5 -3.9 1.9 89 0.7 W 30 48 16 26 1017.2 1019.3 0.0
28/10:30pm 4.0 -3.7 2.2 88 0.8 W 32 44 17 24 1017.1 1019.1 0.0
28/10:09pm 4.1 -2.8 2.3 88 0.8 W 28 46 15 25 1017.0 1019.0 0.0
28/10:00pm 4.0 -2.6 2.2 88 0.8 W 26 43 14 23 1017.1 1019.1 0.0
28/09:45pm 4.1 -3.2 2.3 88 0.8 W 30 48 16 26 1017.0 1019.0 0.0
28/09:30pm 3.8 -2.8 2.2 89 0.7 W 26 41 14 22 1016.8 1018.9 0.0
28/09:00pm 3.8 -2.8 1.8 87 0.8 W 26 39 14 21 1017.0 1019.0 0.0
28/08:30pm 4.4 -1.7 2.9 90 0.7 W 24 35 13 19 1017.0 1019.0 0.0
28/08:00pm 4.7 -1.5 2.4 85 1.0 W 24 41 13 22 1016.7 1018.8 0.0
28/07:30pm 4.6 -1.5 2.5 86 0.9 W 24 37 13 20 1016.4 1018.5 0.0
28/07:00pm 4.6 -0.1 2.9 89 0.7 WNW 17 28 9 15 1016.4 1018.5 0.0
28/06:30pm 4.5 -0.6 3.0 90 0.7 W 19 26 10 14 1016.2 1018.2 0.0
28/06:00pm 4.6 -0.7 3.1 90 0.7 W 20 28 11 15 1015.9 1017.9 0.0
28/05:30pm 5.2 0.2 3.5 89 0.8 W 19 28 10 15 1015.9 1017.9 0.0
28/05:00pm 4.9 0.2 2.9 87 0.9 WNW 17 28 9 15 1015.6 1017.7 0.0
28/04:30pm 5.3 0.2 3.0 85 1.0 WNW 19 28 10 15 1015.6 1017.7 0.0
28/04:00pm 6.3 0.2 2.9 79 1.5 W 24 39 13 21 1015.3 1017.3 0.0
28/03:30pm 6.8 0.1 3.6 80 1.5 W 28 39 15 21 1015.0 1017.0 0.0
28/03:18pm 6.9 0.2 3.9 81 1.4 W 28 46 15 25 1014.9 1016.9 0.0
28/03:00pm 6.4 -0.4 3.2 80 1.4 WNW 28 41 15 22 1015.0 1017.0 0.0
28/02:30pm 7.4 -0.3 3.6 77 1.7 W 33 50 18 27 1014.9 1016.9 0.0
28/02:22pm 7.3 -0.2 3.2 75 1.9 W 32 50 17 27 1014.7 1016.8 0.0
28/02:00pm 7.5 0.9 4.1 79 1.6 W 28 39 15 21 1015.1 1017.1 0.0
28/01:30pm 6.8 -0.1 4.8 87 0.9 W 30 37 16 20 1015.1 1017.1 0.0
28/01:00pm 7.7 2.1 5.5 86 1.0 W 24 37 13 20 1015.1 1017.1 0.0
28/12:30pm 7.8 0.3 4.7 81 1.5 W 33 46 18 25 1014.9 1016.9 0.0
28/12:00pm 7.5 1.1 5.0 84 1.2 W 28 39 15 21 1015.0 1017.0 0.0
28/11:30am 7.2 1.0 4.2 81 1.4 W 26 41 14 22 1015.0 1017.0 0.0
28/11:14am 7.2 0.6 4.2 81 1.4 W 28 46 15 25 1015.1 1017.1 0.0
28/11:00am 7.1 -0.5 3.9 80 1.5 W 33 48 18 26 1015.2 1017.2 0.0
28/10:30am 6.9 -0.5 4.0 82 1.3 W 32 39 17 21 1015.1 1017.1 0.0
28/10:00am 6.1 -0.2 3.9 86 1.0 W 26 37 14 20 1015.0 1017.0 0.0
28/09:30am 5.5 -0.8 3.7 88 0.8 W 26 35 14 19 1014.5 1016.5 0.0
28/09:00am 3.8 -1.5 2.9 94 0.4 W 20 28 11 15 1014.3 1016.3 0.0
28/08:30am 3.4 -2.4 2.2 92 0.5 W 22 28 12 15 1014.2 1016.2 0.0
28/08:00am 3.4 -2.8 2.2 92 0.5 W 24 33 13 18 1014.0 1016.0 0.0
28/07:30am 3.5 -1.9 2.6 94 0.4 W 20 28 11 15 1013.5 1015.5 0.0
28/07:00am 3.5 -2.3 2.5 93 0.4 W 22 32 12 17 1013.3 1015.3 0.0
28/06:30am 3.2 -2.2 2.2 93 0.4 W 20 28 11 15 1013.0 1014.9 0.0
28/06:00am 2.9 -2.0 2.0 94 0.4 W 17 26 9 14 1012.5 1014.5 0.0
28/05:30am 2.9 -2.0 2.0 94 0.4 W 17 26 9 14 1012.4 1014.4 0.0

Other Formats:

Comma delimited format used in spreadsheet applications
http://www.bom.gov.au/fwo/IDT60801/IDT60801.95959.axf

JavaScript Object Notation format (JSON) in row-major order
http://www.bom.gov.au/fwo/IDT60801/IDT60801.95959.json